Hlavní strana
METAR-TAF:

METAR-TAF

Letiště :

Pago Pago, Menší odlehlé ostrovy Spojených států amerických

zeměpisná šířka: 14-20S, zeměpisná délka: 170-43W, výška: 3 m

Aktuální stav počasí

Zpráva byla vytvořena před 56 minutami, v 05:50 UTC
Východní vítr 10 kt
Teplota 28°C
Vlhkost vzduchu 84%
Tlak 1008 hPa
Viditelnost: 19.3 km
Skoro jasno ve výšce 2200 ft
Polojasno ve výšce 4000 ft

METAR: NSTU 130550Z 08010KT 12SM FEW022 SCT040 28/25 A2976 RMK SLP078 8/800 T02840246 10307 20284 52008

Čas: 19:46 (06:46 UTC)

Předpověď počasí

Zpráva byla vytvořena před 1 hodinou a 9 minutami, v 05:37 UTC
Předpověď platná od 13 v 06 UTC do 14 v 06 UTC
Východní vítr 9 kt
Viditelnost: 10 km
Skoro jasno ve výšce 2000 ft
Polojasno ve výšce 4000 ft
Polojasno ve výšce 10000 ft
Od 14 v 0400 UTC
Východoseverovýchodní vítr 9 kt
Viditelnost: 10 km
Polojasno ve výšce 4000 ft
Oblačno až skoro zataženo ve výšce 10000 ft
přeháňky v blízkosti

TAF: NSTU 130537Z 1306/1406 10009KT P6SM FEW020 SCT040 SCT100 FM140400 07009KT P6SM VCSH SCT040 BKN100

Stav a předpovědi počasí z více než 4 000 letišť (zprávy METAR a TAF).

Červené a žluté tečky na mapě představují dostupné meteorologické stanice.

Když kurzor umístíte na tečku, zobrazí se název stanice.

Pak kliknutím zobrazíte stav a předpověď počasí.

Chcete-li změnit mapu, kliknutím na zelené tlačítko se znaménkem +mapu přiblížíte, kliknutím na zelené tlačítko se znaménkem – mapu oddálíte a kliknutím na zelené šipky přejdete na sousední mapy.


METAR-TAF: